Time;durP1;ratioP1;P1;durP2;ratioP2;P2;SDS_P1;SDS_P2;PMS_P1;PMS_P2;Temp;Humidity;BMP_temperature;BMP_pressure;BME280_temperature;BME280_humidity;BME280_pressure;Samples;Min_cycle;Max_cycle;Signal;HPM_P1;HPM_P2
2023/10/04 00:00:59;;;;;;;12.32;5.47;;;;;;;22.61;55.64;99755.78;5091783;28;20401;-44
2023/10/04 00:03:27;;;;;;;17.73;5.30;;;;;;;22.49;55.21;99758.63;5091973;28;20061;-44
2023/10/04 00:05:54;;;;;;;22.15;5.25;;;;;;;22.47;55.61;99754.59;5094886;28;20032;-44
2023/10/04 00:08:20;;;;;;;10.85;5.20;;;;;;;22.49;55.23;99750.59;5096101;28;20047;-45
2023/10/04 00:10:46;;;;;;;18.70;5.97;;;;;;;22.65;54.72;99748.88;5095989;28;20871;-44
2023/10/04 00:13:14;;;;;;;19.25;6.28;;;;;;;22.74;54.34;99763.41;5095817;28;20168;-45
2023/10/04 00:15:40;;;;;;;32.13;7.35;;;;;;;22.73;53.92;99751.09;5094102;28;20051;-45
2023/10/04 00:18:06;;;;;;;14.07;5.57;;;;;;;22.70;54.14;99758.84;5095585;28;20490;-44
2023/10/04 00:20:33;;;;;;;8.82;4.40;;;;;;;22.58;54.17;99756.31;5095568;28;20097;-45
2023/10/04 00:23:00;;;;;;;16.75;4.85;;;;;;;22.48;53.96;99758.91;5095563;28;20031;-44
2023/10/04 00:25:26;;;;;;;13.80;5.15;;;;;;;22.45;54.28;99762.06;5094345;28;20024;-44
2023/10/04 00:27:56;;;;;;;12.98;5.18;;;;;;;22.42;54.07;99771.41;5095416;28;20034;-44
2023/10/04 00:30:26;;;;;;;11.73;4.65;;;;;;;22.42;54.37;99770.59;5095724;28;20028;-45
2023/10/04 00:32:53;;;;;;;17.00;5.18;;;;;;;22.33;54.05;99768.38;5095547;28;20504;-44
2023/10/04 00:35:19;;;;;;;12.63;5.45;;;;;;;22.27;54.06;99765.88;5095264;28;20048;-45
2023/10/04 00:37:51;;;;;;;11.82;5.05;;;;;;;22.17;54.40;99758.50;5093867;28;20493;-45
2023/10/04 00:40:22;;;;;;;14.82;5.60;;;;;;;22.07;54.54;99753.06;5095262;28;20052;-44
2023/10/04 00:42:51;;;;;;;11.55;4.93;;;;;;;21.98;54.87;99757.25;5077261;28;20035;-44
2023/10/04 00:45:19;;;;;;;12.38;6.00;;;;;;;21.94;55.03;99755.06;5095065;28;20036;-44
2023/10/04 00:47:47;;;;;;;10.68;4.15;;;;;;;22.04;55.12;99757.03;5095351;28;20032;-45
2023/10/04 00:50:22;;;;;;;10.60;3.80;;;;;;;22.07;54.30;99758.41;5095007;28;20034;-44
2023/10/04 00:52:54;;;;;;;21.00;5.75;;;;;;;21.97;54.90;99756.41;5094968;28;20073;-44
2023/10/04 00:55:21;;;;;;;11.30;4.88;;;;;;;21.91;55.10;99750.22;5093725;28;20042;-45
2023/10/04 00:57:49;;;;;;;14.00;4.43;;;;;;;21.90;55.04;99745.13;5094838;28;20028;-44
2023/10/04 01:00:17;;;;;;;18.52;6.63;;;;;;;21.86;55.43;99750.16;5094924;28;20031;-45
2023/10/04 01:02:47;;;;;;;9.30;4.20;;;;;;;21.88;55.22;99747.22;5094661;28;20107;-44
2023/10/04 01:05:18;;;;;;;6.95;4.05;;;;;;;21.84;55.33;99741.56;5094703;28;20032;-44
2023/10/04 01:07:44;;;;;;;12.00;4.90;;;;;;;21.76;55.38;99733.97;5094718;28;20032;-44
2023/10/04 01:10:24;;;;;;;11.05;4.40;;;;;;;21.62;55.40;99733.53;5093318;28;20024;-44
2023/10/04 01:12:51;;;;;;;13.63;5.22;;;;;;;21.59;56.04;99730.53;5094600;28;20032;-45
2023/10/04 01:17:56;;;;;;;11.43;6.65;;;;;;;21.58;55.85;99729.75;5094338;28;20048;-45
2023/10/04 01:20:28;;;;;;;20.08;5.97;;;;;;;21.59;56.03;99728.72;5094533;28;20059;-44
2023/10/04 01:23:01;;;;;;;16.33;5.97;;;;;;;21.52;56.08;99728.06;5093207;28;20028;-44
2023/10/04 01:25:31;;;;;;;20.17;5.30;;;;;;;21.54;56.42;99731.28;5093162;28;20085;-44
2023/10/04 01:27:59;;;;;;;13.85;5.10;;;;;;;21.59;55.83;99734.06;5093115;28;20028;-44
2023/10/04 01:30:26;;;;;;;25.23;6.15;;;;;;;21.54;55.72;99731.28;5094592;28;20032;-44
2023/10/04 01:32:51;;;;;;;9.80;5.07;;;;;;;21.37;56.05;99725.97;5092964;28;20038;-44
2023/10/04 01:35:24;;;;;;;17.42;6.35;;;;;;;21.28;56.66;99722.09;5092876;28;20020;-44
2023/10/04 01:37:53;;;;;;;15.82;4.85;;;;;;;21.17;57.11;99722.97;5094163;28;20035;-44
2023/10/04 01:40:25;;;;;;;9.90;4.20;;;;;;;21.17;57.46;99725.66;5094134;28;20024;-45
2023/10/04 01:42:55;;;;;;;9.23;4.18;;;;;;;21.12;57.56;99718.38;5094084;28;20089;-44
2023/10/04 01:45:21;;;;;;;17.23;5.20;;;;;;;21.06;57.54;99716.69;5094287;28;20464;-44
2023/10/04 01:47:49;;;;;;;16.00;5.20;;;;;;;20.97;57.73;99721.63;5075790;28;20506;-44
2023/10/04 01:50:15;;;;;;;13.40;5.63;;;;;;;20.80;57.95;99710.94;5093821;28;20024;-44
2023/10/04 01:52:49;;;;;;;12.63;3.95;;;;;;;20.73;58.41;99721.00;5093866;28;20028;-44
2023/10/04 01:55:17;;;;;;;21.15;5.82;;;;;;;20.64;58.86;99722.41;5093787;28;20107;-44
2023/10/04 01:57:44;;;;;;;45.47;21.02;;;;;;;20.53;58.76;99732.88;5093657;28;20088;-44
2023/10/04 02:00:14;;;;;;;29.25;16.08;;;;;;;20.40;59.36;99733.16;5093714;28;20101;-44
2023/10/04 02:02:40;;;;;;;17.83;12.50;;;;;;;20.19;59.58;99731.19;5093941;28;20070;-44
2023/10/04 02:05:16;;;;;;;17.42;7.03;;;;;;;19.91;60.27;99730.13;5093653;28;20525;-44
2023/10/04 02:07:44;;;;;;;8.40;4.38;;;;;;;19.87;61.12;99735.09;5093562;28;20107;-44
2023/10/04 02:10:11;;;;;;;5.72;2.88;;;;;;;19.59;60.88;99737.69;5093526;28;20027;-44
2023/10/04 02:13:35;;;;;;;14.43;6.45;;;;;;;19.12;62.58;99739.31;5093366;28;20020;-44
2023/10/04 02:16:02;;;;;;;7.63;2.72;;;;;;;18.84;63.00;99739.97;5093273;28;20386;-46
2023/10/04 02:18:27;;;;;;;13.20;3.53;;;;;;;18.40;63.17;99746.50;5093346;28;20051;-46
2023/10/04 02:20:53;;;;;;;17.80;7.28;;;;;;;18.23;65.25;99736.50;5093242;28;20074;-46
2023/10/04 02:23:19;;;;;;;10.15;4.15;;;;;;;18.47;65.94;99739.25;5093486;28;20035;-45
2023/10/04 02:25:47;;;;;;;14.77;6.13;;;;;;;18.76;65.41;99740.25;5091961;28;20028;-46
2023/10/04 02:31:36;;;;;;;13.63;3.78;;;;;;;18.92;63.78;99731.66;5093366;28;20039;-46
2023/10/04 02:34:04;;;;;;;14.32;5.95;;;;;;;18.71;64.17;99732.13;5093027;28;20020;-46
2023/10/04 02:36:30;;;;;;;10.23;3.92;;;;;;;18.55;64.12;99731.78;5093179;28;20554;-46
2023/10/04 02:38:57;;;;;;;22.23;6.28;;;;;;;18.27;64.59;99736.84;5092967;28;20028;-45
2023/10/04 02:41:23;;;;;;;12.85;4.57;;;;;;;18.09;65.18;99727.91;5092768;28;20024;-46
2023/10/04 02:43:48;;;;;;;12.50;4.85;;;;;;;17.96;65.89;99728.03;5091557;28;20371;-46
2023/10/04 02:46:16;;;;;;;16.80;4.78;;;;;;;17.84;65.90;99727.97;5092834;28;20024;-45
2023/10/04 02:48:42;;;;;;;10.50;3.95;;;;;;;17.70;66.46;99727.28;5092741;28;20020;-45
2023/10/04 02:51:08;;;;;;;7.10;4.00;;;;;;;17.51;66.86;99728.31;5091374;28;20088;-46
2023/10/04 02:53:34;;;;;;;10.85;4.70;;;;;;;17.40;67.35;99729.03;5092699;28;20042;-46
2023/10/04 02:56:06;;;;;;;11.65;4.78;;;;;;;17.22;68.06;99730.63;5092592;28;20020;-46
2023/10/04 02:58:34;;;;;;;7.90;3.85;;;;;;;17.15;68.27;99729.88;5092745;28;20512;-46
2023/10/04 03:01:00;;;;;;;8.77;3.63;;;;;;;17.10;68.48;99727.88;5092564;28;20032;-46
2023/10/04 03:03:30;;;;;;;11.88;4.82;;;;;;;17.02;68.56;99740.59;5091237;28;20031;-46
2023/10/04 03:05:56;;;;;;;9.38;3.53;;;;;;;16.95;68.84;99733.50;5092449;28;20439;-45
2023/10/04 03:08:27;;;;;;;12.80;4.55;;;;;;;16.85;69.54;99735.81;5091168;28;20024;-45
2023/10/04 03:10:55;;;;;;;9.95;5.97;;;;;;;16.93;70.06;99735.56;5092388;28;20035;-46
2023/10/04 03:13:27;;;;;;;13.27;5.93;;;;;;;17.12;70.04;99735.59;5092351;28;20024;-46
2023/10/04 03:15:53;;;;;;;13.13;5.43;;;;;;;17.46;70.04;99738.78;5092056;28;20044;-46
2023/10/04 03:18:25;;;;;;;15.88;5.22;;;;;;;17.52;68.96;99736.03;5092235;28;20466;-45
2023/10/04 03:23:25;;;;;;;14.90;6.63;;;;;;;17.62;68.82;99748.81;5092260;28;20020;-46
2023/10/04 03:25:55;;;;;;;26.02;12.07;;;;;;;17.83;68.84;99749.41;5092345;28;20378;-46
2023/10/04 03:28:33;;;;;;;13.07;8.15;;;;;;;18.03;67.93;99751.84;5092220;28;20024;-46
2023/10/04 03:31:03;;;;;;;15.45;6.07;;;;;;;18.04;67.48;99748.19;5092129;28;20021;-46
2023/10/04 03:33:33;;;;;;;30.48;23.67;;;;;;;18.14;67.34;99748.47;5092047;28;20074;-46
2023/10/04 03:35:59;;;;;;;14.23;6.63;;;;;;;18.29;66.88;99746.25;5091955;28;20024;-46
2023/10/04 03:38:25;;;;;;;18.77;6.03;;;;;;;18.24;66.51;99737.31;5092182;28;20032;-46
2023/10/04 03:40:55;;;;;;;7.90;4.05;;;;;;;18.27;66.47;99739.50;5091972;28;20106;-46
2023/10/04 03:43:20;;;;;;;15.60;6.45;;;;;;;18.21;66.23;99738.59;5090837;28;20453;-45
2023/10/04 03:45:46;;;;;;;13.50;4.88;;;;;;;18.25;66.73;99739.75;5091971;28;20103;-46
2023/10/04 03:48:15;;;;;;;8.55;4.53;;;;;;;18.22;66.43;99747.34;5073813;28;20111;-46
2023/10/04 03:50:50;;;;;;;14.90;5.55;;;;;;;18.02;66.91;99753.72;5091904;28;20031;-46
2023/10/04 03:53:20;;;;;;;7.20;3.85;;;;;;;17.87;66.64;99748.00;5092080;28;20509;-46
2023/10/04 03:55:46;;;;;;;13.48;4.30;;;;;;;17.73;67.35;99750.75;5091886;28;20069;-46
2023/10/04 03:58:12;;;;;;;15.23;8.48;;;;;;;17.58;67.63;99744.97;5091671;28;20412;-46
2023/10/04 04:00:39;;;;;;;11.35;4.53;;;;;;;17.49;68.16;99751.63;5090396;28;20397;-46
2023/10/04 04:03:06;;;;;;;8.18;4.13;;;;;;;17.43;68.52;99753.31;5090528;28;20133;-45
2023/10/04 04:05:32;;;;;;;12.90;5.00;;;;;;;17.44;68.54;99748.78;5091726;28;20461;-46
2023/10/04 04:08:03;;;;;;;14.27;4.80;;;;;;;17.46;68.68;99749.38;5091696;28;20020;-46
2023/10/04 04:10:29;;;;;;;13.25;4.88;;;;;;;17.54;68.68;99751.75;5091771;28;20059;-46
2023/10/04 04:12:55;;;;;;;11.90;4.60;;;;;;;17.58;68.33;99750.28;5091650;28;20440;-46
2023/10/04 04:15:22;;;;;;;13.60;6.10;;;;;;;17.71;68.66;99746.69;5091665;28;20095;-46
2023/10/04 04:17:48;;;;;;;18.20;5.82;;;;;;;17.94;68.11;99751.34;5091359;28;20049;-46
2023/10/04 04:20:18;;;;;;;11.77;5.10;;;;;;;17.97;67.50;99753.59;5091524;28;20027;-46
2023/10/04 04:22:47;;;;;;;13.18;4.55;;;;;;;17.79;67.25;99749.06;5090271;28;20040;-46
2023/10/04 04:25:15;;;;;;;11.27;4.93;;;;;;;17.66;67.67;99754.50;5090145;28;20308;-46
2023/10/04 04:27:44;;;;;;;9.63;4.35;;;;;;;17.46;67.68;99752.03;5091518;28;20329;-46
2023/10/04 04:30:19;;;;;;;21.05;7.63;;;;;;;17.23;68.61;99761.44;5090191;28;20021;-45
2023/10/04 04:32:57;;;;;;;13.15;7.93;;;;;;;17.22;69.58;99756.34;5091583;28;20107;-46
2023/10/04 04:38:16;;;;;;;18.85;6.10;;;;;;;17.35;69.10;99751.72;5091449;28;20036;-46
2023/10/04 04:40:48;;;;;;;17.13;5.40;;;;;;;17.30;69.08;99756.06;5091503;28;20032;-46
2023/10/04 04:43:23;;;;;;;24.63;6.93;;;;;;;17.42;69.67;99756.97;5091516;28;20035;-46
2023/10/04 04:45:51;;;;;;;23.23;8.48;;;;;;;17.62;69.29;99763.94;5091446;28;20020;-46
2023/10/04 04:48:28;;;;;;;16.35;5.50;;;;;;;17.61;68.68;99760.47;5091372;28;20031;-46
2023/10/04 04:50:57;;;;;;;22.15;7.05;;;;;;;17.46;68.64;99762.66;5091416;28;20024;-46
2023/10/04 04:53:24;;;;;;;15.98;5.82;;;;;;;17.37;69.07;99756.81;5077226;28;20024;-46
2023/10/04 04:55:51;;;;;;;27.40;15.48;;;;;;;17.23;69.09;99742.88;5094914;28;20034;-45
2023/10/04 04:58:21;;;;;;;11.35;6.43;;;;;;;17.11;69.18;99748.06;5094896;28;20042;-45
2023/10/04 05:00:50;;;;;;;11.48;5.10;;;;;;;17.03;69.61;99747.53;5094789;28;20020;-46
2023/10/04 05:03:18;;;;;;;21.48;5.55;;;;;;;17.11;70.03;99747.25;5094855;28;20028;-46
2023/10/04 05:05:45;;;;;;;28.98;9.52;;;;;;;17.32;70.36;99746.84;5094771;28;20031;-46
2023/10/04 05:08:11;;;;;;;31.52;8.27;;;;;;;17.48;69.42;99749.97;5093411;28;20036;-46
2023/10/04 05:10:38;;;;;;;23.85;6.85;;;;;;;17.51;69.48;99738.94;5094690;28;20028;-46
2023/10/04 05:13:08;;;;;;;33.13;10.88;;;;;;;17.66;69.43;99747.34;5094612;28;20538;-46
2023/10/04 05:15:38;;;;;;;40.03;14.77;;;;;;;17.76;68.92;99739.66;5094390;28;20028;-47
2023/10/04 05:18:05;;;;;;;14.20;6.38;;;;;;;17.90;68.30;99745.69;5094543;28;20020;-46
2023/10/04 05:20:32;;;;;;;21.80;7.20;;;;;;;17.85;67.91;99742.88;5094781;28;20440;-46
2023/10/04 05:22:59;;;;;;;25.50;7.60;;;;;;;17.86;68.27;99743.69;5094464;28;20020;-46
2023/10/04 05:25:27;;;;;;;25.40;13.45;;;;;;;17.85;68.05;99739.41;5094400;28;20436;-46
2023/10/04 05:28:08;;;;;;;19.45;9.50;;;;;;;17.92;68.09;99742.81;5092997;28;20055;-45
2023/10/04 05:30:34;;;;;;;14.77;6.82;;;;;;;18.13;67.60;99747.66;5092996;28;20028;-46
2023/10/04 05:33:01;;;;;;;18.40;6.70;;;;;;;18.07;66.96;99742.41;5094306;28;20016;-45
2023/10/04 05:35:27;;;;;;;25.48;11.88;;;;;;;18.04;67.31;99753.50;5094190;28;20028;-46
2023/10/04 05:37:53;;;;;;;20.95;11.55;;;;;;;18.19;67.22;99747.78;5094083;28;20032;-46
2023/10/04 05:40:27;;;;;;;14.13;5.85;;;;;;;18.48;66.53;99744.34;5094132;28;20027;-46
2023/10/04 05:42:54;;;;;;;26.70;8.88;;;;;;;18.72;65.55;99749.72;5094165;28;20493;-46
2023/10/04 05:45:27;;;;;;;17.30;7.85;;;;;;;18.77;64.93;99736.53;5094029;28;20573;-46
2023/10/04 05:47:53;;;;;;;23.02;7.80;;;;;;;18.88;64.71;99746.44;5092711;28;20032;-46
2023/10/04 05:50:22;;;;;;;25.75;8.88;;;;;;;19.00;64.13;99745.66;5093916;28;20024;-46
2023/10/04 05:52:49;;;;;;;22.23;8.60;;;;;;;19.09;63.63;99746.94;5093833;28;20440;-46
2023/10/04 05:55:17;;;;;;;21.10;8.57;;;;;;;19.19;63.11;99741.84;5092476;28;20039;-46
2023/10/04 05:57:45;;;;;;;12.52;5.32;;;;;;;19.25;62.24;99743.56;5092400;28;20130;-45
2023/10/04 06:03:11;;;;;;;18.15;5.75;;;;;;;18.86;62.49;99753.84;5087635;28;20085;-46
2023/10/04 06:05:41;;;;;;;17.98;6.18;;;;;;;18.93;62.63;99756.38;5092518;28;20108;-46
2023/10/04 06:08:18;;;;;;;18.42;9.05;;;;;;;19.22;62.55;99757.38;5092337;28;20016;-46
2023/10/04 06:10:45;;;;;;;26.40;6.55;;;;;;;19.44;61.62;99751.47;5092414;28;20472;-46
2023/10/04 06:13:14;;;;;;;13.48;5.25;;;;;;;19.60;60.53;99757.91;5093520;28;20012;-46
2023/10/04 06:15:44;;;;;;;9.73;4.88;;;;;;;19.47;60.48;99766.97;5093229;28;20024;-47
2023/10/04 06:18:13;;;;;;;30.70;8.43;;;;;;;19.38;61.05;99766.50;5093408;28;20060;-46
2023/10/04 06:20:40;;;;;;;27.40;9.82;;;;;;;19.26;60.77;99771.81;5093294;28;20023;-46
2023/10/04 06:23:09;;;;;;;17.50;6.72;;;;;;;19.45;61.21;99766.38;5093387;28;20027;-46
2023/10/04 06:25:46;;;;;;;26.00;9.55;;;;;;;19.62;60.69;99769.16;5093285;28;20026;-46
2023/10/04 06:28:13;;;;;;;19.10;5.60;;;;;;;19.73;60.32;99765.72;5092159;28;20028;-45
2023/10/04 06:30:40;;;;;;;12.45;5.68;;;;;;;19.80;59.80;99766.41;5093121;28;20077;-46
2023/10/04 06:33:09;;;;;;;14.27;6.43;;;;;;;19.91;59.45;99778.88;5091979;28;20028;-46
2023/10/04 06:35:37;;;;;;;27.30;10.50;;;;;;;19.98;58.96;99768.09;5091711;28;20031;-46
2023/10/04 06:38:09;;;;;;;19.73;9.48;;;;;;;19.94;58.55;99769.59;5092916;28;20036;-46
2023/10/04 06:40:36;;;;;;;13.93;6.40;;;;;;;19.99;58.77;99776.91;5091681;28;20036;-46
2023/10/04 06:43:08;;;;;;;7.60;4.60;;;;;;;20.05;58.30;99784.75;5092921;28;20045;-46
2023/10/04 06:45:35;;;;;;;29.13;6.97;;;;;;;20.05;58.31;99782.09;5093108;28;20071;-46
2023/10/04 06:48:03;;;;;;;13.27;6.72;;;;;;;20.22;57.57;99784.00;5091534;28;20028;-46
2023/10/04 06:50:35;;;;;;;19.05;6.07;;;;;;;20.35;57.27;99786.41;5092801;28;20020;-46
2023/10/04 06:53:02;;;;;;;9.50;5.20;;;;;;;20.03;57.20;99778.84;5092710;28;20111;-46
2023/10/04 06:55:32;;;;;;;29.45;8.50;;;;;;;20.12;58.29;99777.44;5091366;28;20374;-46
2023/10/04 06:57:58;;;;;;;31.35;9.73;;;;;;;20.46;57.57;99774.06;5091317;28;20036;-46
2023/10/04 07:00:31;;;;;;;26.65;8.90;;;;;;;20.67;57.48;99772.63;5092577;28;20444;-46
2023/10/04 07:02:58;;;;;;;14.13;5.55;;;;;;;20.88;56.03;99779.91;5091304;28;20405;-46
2023/10/04 07:05:26;;;;;;;12.27;7.22;;;;;;;21.06;55.89;99786.09;5092477;28;20092;-46
2023/10/04 07:07:53;;;;;;;21.27;6.82;;;;;;;21.43;54.83;99780.28;5091189;28;20489;-46
2023/10/04 07:10:22;;;;;;;18.15;7.10;;;;;;;21.52;54.34;99776.94;5092481;28;20016;-46
2023/10/04 07:12:51;;;;;;;22.75;8.32;;;;;;;21.45;54.24;99780.84;5092269;28;20016;-46
2023/10/04 07:15:18;;;;;;;21.25;8.13;;;;;;;21.41;54.20;99779.69;5090944;28;20024;-46
2023/10/04 07:17:45;;;;;;;18.02;8.13;;;;;;;21.21;54.10;99780.19;5090733;28;20086;-46
2023/10/04 07:20:15;;;;;;;14.00;6.38;;;;;;;20.95;54.55;99788.59;5092226;28;20035;-45
2023/10/04 07:23:03;;;;;;;11.18;6.15;;;;;;;20.81;54.77;99794.50;5090962;28;20031;-46
2023/10/04 07:25:34;;;;;;;14.27;6.57;;;;;;;20.83;55.12;99790.53;5090898;28;20038;-46
2023/10/04 07:28:02;;;;;;;9.95;6.10;;;;;;;20.78;54.90;99803.75;5092179;28;20028;-46
2023/10/04 07:30:28;;;;;;;12.75;5.78;;;;;;;20.68;54.55;99798.25;5092103;28;20142;-46
2023/10/04 07:32:54;;;;;;;9.75;5.68;;;;;;;20.62;54.70;99788.53;5090794;28;20012;-46
2023/10/04 07:35:25;;;;;;;17.38;8.23;;;;;;;20.65;55.71;99783.53;5091966;28;20028;-46
2023/10/04 07:37:56;;;;;;;32.78;14.05;;;;;;;20.92;55.39;99782.94;5091983;28;20031;-46
2023/10/04 07:40:24;;;;;;;17.90;7.80;;;;;;;21.12;54.79;99779.78;5073984;28;20032;-46
2023/10/04 07:42:54;;;;;;;20.98;7.18;;;;;;;21.40;53.96;99786.09;5090685;28;20031;-46
2023/10/04 07:45:28;;;;;;;17.48;9.13;;;;;;;21.54;53.48;99787.38;5091867;28;20024;-46
2023/10/04 07:47:54;;;;;;;18.30;8.23;;;;;;;21.42;53.15;99787.44;5091952;28;20025;-46
2023/10/04 07:50:24;;;;;;;12.93;5.80;;;;;;;21.38;53.29;99786.31;5090575;28;20023;-46
2023/10/04 07:52:55;;;;;;;20.48;9.48;;;;;;;21.27;53.39;99773.84;5091857;28;20016;-46
2023/10/04 07:55:22;;;;;;;16.65;6.00;;;;;;;21.10;53.36;99769.34;5091751;28;20498;-46
2023/10/04 07:57:50;;;;;;;29.25;8.65;;;;;;;20.69;55.05;99776.66;5090784;28;20046;-46
2023/10/04 08:00:17;;;;;;;19.50;6.57;;;;;;;20.96;54.67;99778.72;5091782;28;20477;-46
2023/10/04 08:02:51;;;;;;;18.92;7.28;;;;;;;21.41;53.96;99782.34;5090474;28;20089;-45
2023/10/04 08:05:26;;;;;;;21.98;6.78;;;;;;;21.72;52.35;99794.31;5090510;28;20075;-46
2023/10/04 08:07:56;;;;;;;11.77;4.68;;;;;;;21.66;51.58;99806.78;5091810;28;20036;-46
2023/10/04 08:10:29;;;;;;;12.88;4.68;;;;;;;21.47;51.70;99805.44;5073734;28;20032;-46
2023/10/04 08:12:59;;;;;;;12.07;5.43;;;;;;;21.40;52.17;99813.59;5091646;28;20493;-46
2023/10/04 08:15:26;;;;;;;19.55;9.70;;;;;;;21.36;52.65;99820.47;5091652;28;20082;-46
2023/10/04 08:17:53;;;;;;;16.58;5.60;;;;;;;21.62;51.53;99816.34;5091380;28;20537;-46
2023/10/04 08:20:20;;;;;;;20.42;5.78;;;;;;;21.66;51.78;99796.09;5091556;28;20078;-46
2023/10/04 08:22:46;;;;;;;9.13;4.50;;;;;;;22.04;51.49;99796.34;5090307;28;20031;-46
2023/10/04 08:25:17;;;;;;;14.68;6.50;;;;;;;22.56;49.90;99800.41;5090721;28;20020;-46
2023/10/04 08:27:46;;;;;;;9.13;4.68;;;;;;;23.62;48.46;99793.53;5095551;28;20497;-46
2023/10/04 08:30:14;;;;;;;26.17;7.55;;;;;;;24.89;45.85;99785.16;5094249;28;20047;-46
2023/10/04 08:32:42;;;;;;;11.75;4.60;;;;;;;25.29;43.48;99786.25;5095397;28;20440;-46
2023/10/04 08:38:00;;;;;;;21.23;5.78;;;;;;;26.58;41.31;99775.88;5095430;28;20406;-46
2023/10/04 08:40:27;;;;;;;16.48;6.47;;;;;;;26.53;40.52;99769.69;5095243;28;20028;-46
2023/10/04 08:42:55;;;;;;;14.45;5.50;;;;;;;27.66;39.42;99764.13;5095329;28;20565;-47
2023/10/04 08:45:21;;;;;;;25.13;8.75;;;;;;;28.35;37.40;99759.22;5095236;28;20103;-47
2023/10/04 08:47:56;;;;;;;21.17;7.05;;;;;;;27.42;38.05;99754.13;5095434;28;20060;-46
2023/10/04 08:50:41;;;;;;;14.63;4.75;;;;;;;26.45;38.96;99771.88;5095148;28;20032;-46
2023/10/04 08:53:28;;;;;;;6.95;3.97;;;;;;;25.33;40.66;99773.06;5095304;28;20107;-46
2023/10/04 08:56:18;;;;;;;14.20;5.43;;;;;;;24.90;42.57;99777.91;5094997;28;20093;-46
2023/10/04 08:58:44;;;;;;;26.25;7.47;;;;;;;25.94;40.90;99776.69;5094453;28;20105;-47
2023/10/04 09:01:13;;;;;;;27.05;10.55;;;;;;;25.63;41.36;99774.88;5094912;28;20393;-47
2023/10/04 09:03:40;;;;;;;11.43;4.35;;;;;;;25.79;41.82;99781.03;5094833;28;20074;-46
2023/10/04 09:06:10;;;;;;;26.20;8.48;;;;;;;26.58;40.47;99783.13;5094792;28;20030;-47
2023/10/04 09:08:41;;;;;;;27.60;6.20;;;;;;;27.52;39.03;99780.19;5093621;28;20042;-47
2023/10/04 09:11:11;;;;;;;17.77;4.88;;;;;;;28.06;37.67;99779.03;5094755;28;20031;-47
2023/10/04 09:13:48;;;;;;;11.13;5.40;;;;;;;28.61;36.92;99772.38;5094875;28;20069;-47
2023/10/04 09:16:28;;;;;;;16.50;6.75;;;;;;;29.18;35.30;99767.69;5093042;28;20537;-47
2023/10/04 09:19:17;;;;;;;11.27;5.97;;;;;;;29.73;34.43;99755.34;5094634;28;20039;-47
2023/10/04 09:21:44;;;;;;;8.85;4.00;;;;;;;29.35;34.04;99758.19;5094480;28;20063;-46
2023/10/04 09:24:16;;;;;;;8.05;3.42;;;;;;;29.98;33.41;99759.41;5093189;28;20020;-47
2023/10/04 09:26:54;;;;;;;19.08;6.10;;;;;;;31.04;31.97;99752.63;5094414;28;20024;-47
2023/10/04 09:29:35;;;;;;;10.63;3.55;;;;;;;32.07;31.09;99749.81;5093094;28;20051;-47
2023/10/04 09:32:02;;;;;;;13.70;4.15;;;;;;;32.37;29.79;99750.00;5094381;28;20059;-47
2023/10/04 09:34:28;;;;;;;23.70;5.07;;;;;;;32.11;30.14;99756.22;5094291;28;20506;-47
2023/10/04 09:36:55;;;;;;;11.15;3.38;;;;;;;32.01;29.91;99757.31;5093996;28;20065;-47
2023/10/04 09:39:31;;;;;;;7.82;4.15;;;;;;;31.14;30.68;99762.41;5092823;28;20062;-47
2023/10/04 09:41:59;;;;;;;13.65;4.43;;;;;;;30.65;31.37;99758.75;5094161;28;20031;-47
2023/10/04 09:44:31;;;;;;;15.68;3.80;;;;;;;30.71;31.46;99754.81;5094038;28;20033;-47
2023/10/04 09:47:02;;;;;;;9.10;2.97;;;;;;;31.02;30.14;99752.13;5093940;28;20028;-47
2023/10/04 09:49:33;;;;;;;9.90;3.50;;;;;;;31.04;30.71;99746.41;5094034;28;20170;-47
2023/10/04 09:52:01;;;;;;;9.73;3.10;;;;;;;30.96;31.08;99744.47;5093895;28;20036;-47
2023/10/04 09:54:30;;;;;;;8.13;3.15;;;;;;;30.94;31.16;99743.97;5093924;28;20012;-47
2023/10/04 09:56:57;;;;;;;7.65;3.35;;;;;;;31.25;30.69;99744.78;5093635;28;20024;-47
2023/10/04 09:59:23;;;;;;;9.68;3.10;;;;;;;31.23;30.08;99736.16;5092454;28;20141;-47
2023/10/04 10:01:57;;;;;;;5.63;3.03;;;;;;;31.38;30.40;99739.56;5093655;28;20517;-46
2023/10/04 10:04:27;;;;;;;15.88;4.30;;;;;;;31.94;29.33;99740.69;5092422;28;20016;-47
2023/10/04 10:07:06;;;;;;;9.25;4.18;;;;;;;32.25;28.83;99728.91;5075466;28;20028;-47
2023/10/04 10:09:35;;;;;;;7.82;2.90;;;;;;;32.01;28.66;99730.16;5093627;28;20020;-47
2023/10/04 10:12:02;;;;;;;7.65;2.92;;;;;;;32.21;27.75;99736.09;5092186;28;20024;-46
2023/10/04 10:14:30;;;;;;;6.53;2.65;;;;;;;32.19;27.64;99730.97;5093441;28;20024;-47
2023/10/04 10:16:57;;;;;;;14.90;3.60;;;;;;;32.44;27.28;99718.53;5093174;28;20040;-47
2023/10/04 10:19:29;;;;;;;37.25;5.97;;;;;;;32.26;26.88;99714.22;5092146;28;20056;-47
2023/10/04 10:22:08;;;;;;;21.33;4.30;;;;;;;31.85;27.25;99716.25;5093450;28;20509;-46
2023/10/04 10:24:34;;;;;;;19.98;4.18;;;;;;;31.87;27.13;99712.41;5093241;28;20027;-47
2023/10/04 10:27:08;;;;;;;18.17;4.40;;;;;;;32.08;27.33;99709.91;5093230;28;20016;-47
2023/10/04 10:29:36;;;;;;;22.55;7.28;;;;;;;32.28;27.09;99708.44;5092208;28;20032;-47
2023/10/04 10:32:06;;;;;;;4.40;2.45;;;;;;;32.55;27.15;99710.84;5093147;28;20113;-46
2023/10/04 10:34:32;;;;;;;16.73;5.00;;;;;;;32.89;26.49;99716.56;5093074;28;20036;-46
2023/10/04 10:37:23;;;;;;;15.50;3.72;;;;;;;33.29;25.52;99705.41;5092921;28;20019;-46
2023/10/04 10:39:50;;;;;;;10.27;4.18;;;;;;;33.59;25.07;99706.97;5093346;28;20464;-47
2023/10/04 10:42:17;;;;;;;9.80;2.92;;;;;;;33.71;24.65;99700.06;5093038;28;20046;-47
2023/10/04 10:44:43;;;;;;;9.68;3.40;;;;;;;33.65;24.36;99699.44;5091622;28;20028;-47
2023/10/04 10:47:14;;;;;;;10.40;3.00;;;;;;;33.45;24.42;99695.53;5074746;28;20032;-46
2023/10/04 10:49:52;;;;;;;20.55;7.13;;;;;;;33.25;24.87;99699.81;5090983;28;20032;-47
2023/10/04 10:52:38;;;;;;;11.70;6.18;;;;;;;33.01;24.58;99701.13;5092812;28;20508;-46
2023/10/04 10:55:18;;;;;;;15.75;4.63;;;;;;;32.83;24.86;99696.88;5091827;28;20035;-46
2023/10/04 10:57:47;;;;;;;17.63;5.07;;;;;;;32.65;24.98;99698.84;5092627;28;20413;-46
2023/10/04 11:00:19;;;;;;;11.05;3.83;;;;;;;32.60;25.51;99690.88;5092572;28;20040;-47
2023/10/04 11:02:54;;;;;;;7.60;2.75;;;;;;;32.52;26.33;99686.19;5091301;28;20036;-47
2023/10/04 11:05:22;;;;;;;8.38;2.88;;;;;;;32.81;23.99;99675.44;5092574;28;20490;-47
2023/10/04 11:07:52;;;;;;;15.45;3.17;;;;;;;33.00;24.12;99671.53;5092497;28;20059;-47
2023/10/04 11:10:20;;;;;;;8.68;2.97;;;;;;;32.92;23.37;99680.53;5092730;28;20450;-46
2023/10/04 11:12:55;;;;;;;10.57;2.47;;;;;;;32.43;24.39;99689.72;5092455;28;20426;-46
2023/10/04 11:15:26;;;;;;;16.52;3.03;;;;;;;31.88;24.91;99687.66;5092747;28;20493;-46
2023/10/04 11:17:53;;;;;;;18.17;3.63;;;;;;;31.53;24.79;99687.63;5092141;28;20040;-47
2023/10/04 11:20:20;;;;;;;12.77;2.95;;;;;;;31.56;25.51;99676.13;5091032;28;20103;-47
2023/10/04 11:22:48;;;;;;;8.75;2.78;;;;;;;31.65;24.70;99665.25;5092306;28;20070;-46
2023/10/04 11:25:14;;;;;;;8.75;2.97;;;;;;;31.48;24.97;99679.59;5092253;28;20098;-47
2023/10/04 11:27:45;;;;;;;5.53;2.60;;;;;;;31.16;25.52;99678.03;5092422;28;20111;-46
2023/10/04 11:30:33;;;;;;;10.60;2.92;;;;;;;30.82;25.88;99671.31;5090919;28;20032;-46
2023/10/04 11:32:59;;;;;;;10.82;2.45;;;;;;;30.59;26.04;99660.53;5092117;28;20119;-46
2023/10/04 11:35:34;;;;;;;11.27;2.70;;;;;;;30.36;26.45;99665.13;5090774;28;20020;-46
2023/10/04 11:38:05;;;;;;;12.25;2.40;;;;;;;30.13;26.16;99664.31;5092080;28;20028;-46
2023/10/04 11:40:30;;;;;;;14.55;3.90;;;;;;;30.06;26.59;99656.63;5092336;28;20028;-46
2023/10/04 11:43:01;;;;;;;61.05;53.13;;;;;;;29.86;26.57;99659.78;5090706;28;20542;-46
2023/10/04 11:45:27;;;;;;;8.85;3.72;;;;;;;29.90;26.89;99655.34;5091939;28;20487;-45
2023/10/04 11:47:58;;;;;;;11.00;3.42;;;;;;;30.02;26.99;99649.41;5090625;28;20061;-46
2023/10/04 11:50:23;;;;;;;11.75;3.33;;;;;;;29.93;27.13;99648.56;5091856;28;20035;-46
2023/10/04 11:52:52;;;;;;;12.75;2.78;;;;;;;29.76;27.52;99654.59;5090589;28;20024;-46
2023/10/04 11:55:25;;;;;;;7.47;2.42;;;;;;;29.59;27.86;99636.28;5091852;28;20020;-47